Time;durP1;ratioP1;P1;durP2;ratioP2;P2;SDS_P1;SDS_P2;PMS_P1;PMS_P2;Temp;Humidity;BMP_temperature;BMP_pressure;BME280_temperature;BME280_humidity;BME280_pressure;Samples;Min_cycle;Max_cycle;Signal;HPM_P1;HPM_P2
2023/04/20 00:01:38;;;;;;;;;;;;;;;25.67;29.61;98280.03;5088591;28;19943;-86
2023/04/20 00:04:04;;;;;;;;;;;;;;;25.89;28.74;98278.25;5093372;28;19917;-86
2023/04/20 00:06:31;;;;;;;;;;;;;;;25.74;28.97;98283.44;5089266;28;19924;-86
2023/04/20 00:08:57;;;;;;;;;;;;;;;25.66;28.90;98276.44;5086362;28;19965;-86
2023/04/20 00:11:23;;;;;;;;;;;;;;;25.47;29.22;98284.94;5093172;28;20018;-86
2023/04/20 00:13:49;;;;;;;;;;;;;;;25.52;28.95;98273.19;5091258;28;20474;-85
2023/04/20 00:16:15;;;;;;;;;;;;;;;25.62;29.80;98272.94;5091562;28;19920;-85
2023/04/20 00:18:43;;;;;;;;;;;;;;;25.59;28.93;98259.75;5094636;28;20284;-86
2023/04/20 00:21:09;;;;;;;;;;;;;;;25.75;29.41;98273.78;5093471;28;19924;-86
2023/04/20 00:23:35;;;;;;;;;;;;;;;25.75;29.44;98270.97;5088665;28;19920;-86
2023/04/20 00:26:01;;;;;;;;;;;;;;;25.85;28.96;98274.75;5086701;28;19916;-86
2023/04/20 00:28:28;;;;;;;;;;;;;;;25.81;29.32;98269.19;5087992;28;19924;-85
2023/04/20 00:30:54;;;;;;;;;;;;;;;25.96;29.18;98264.78;5081138;28;20368;-85
2023/04/20 00:33:20;;;;;;;;;;;;;;;26.15;28.91;98268.75;5088592;28;19973;-86
2023/04/20 00:35:46;;;;;;;;;;;;;;;26.16;28.16;98264.69;5090877;28;19920;-86
2023/04/20 00:38:12;;;;;;;;;;;;;;;25.95;29.33;98273.69;5090513;28;19920;-86
2023/04/20 00:40:38;;;;;;;;;;;;;;;26.13;29.89;98265.59;5087312;28;20387;-86
2023/04/20 00:43:11;;;;;;;;;;;;;;;26.31;28.41;98268.69;5074962;28;19921;-86
2023/04/20 00:45:37;;;;;;;;;;;;;;;25.95;28.37;98273.69;5086825;28;20022;-86
2023/04/20 00:48:04;;;;;;;;;;;;;;;25.91;28.71;98270.16;5086623;28;19927;-86
2023/04/20 00:50:30;;;;;;;;;;;;;;;25.87;28.80;98267.44;5076653;28;19996;-86
2023/04/20 00:52:56;;;;;;;;;;;;;;;25.95;28.44;98268.81;5084279;28;19920;-86
2023/04/20 00:55:23;;;;;;;;;;;;;;;26.01;28.86;98260.66;5086744;28;19927;-86
2023/04/20 00:57:49;;;;;;;;;;;;;;;26.10;28.88;98263.66;5089954;28;19982;-86
2023/04/20 01:00:15;;;;;;;;;;;;;;;26.26;28.88;98269.22;5089243;28;19927;-86
2023/04/20 01:02:41;;;;;;;;;;;;;;;26.36;28.39;98270.16;5077250;28;20006;-86
2023/04/20 01:05:08;;;;;;;;;;;;;;;26.13;28.84;98268.41;5087925;28;20368;-86
2023/04/20 01:07:34;;;;;;;;;;;;;;;26.04;28.98;98273.84;5088783;28;20383;-85
2023/04/20 01:10:00;;;;;;;;;;;;;;;25.72;28.25;98269.03;5091033;28;19973;-86
2023/04/20 01:12:26;;;;;;;;;;;;;;;25.46;28.89;98277.75;5087996;28;19920;-86
2023/04/20 01:14:52;;;;;;;;;;;;;;;25.24;29.05;98271.81;5082280;28;19956;-86
2023/04/20 01:17:19;;;;;;;;;;;;;;;24.92;29.54;98269.75;5088940;28;20379;-86
2023/04/20 01:19:45;;;;;;;;;;;;;;;24.72;29.96;98271.75;5087387;28;19995;-86
2023/04/20 01:22:16;;;;;;;;;;;;;;;24.71;30.34;98273.75;5079806;28;19931;-86
2023/04/20 01:24:42;;;;;;;;;;;;;;;24.74;29.86;98272.09;5098335;28;19916;-86
2023/04/20 01:27:08;;;;;;;;;;;;;;;25.14;29.70;98267.22;5077543;28;19920;-86
2023/04/20 01:29:34;;;;;;;;;;;;;;;25.50;29.54;98272.81;5085318;28;19966;-85
2023/04/20 01:32:00;;;;;;;;;;;;;;;25.88;29.02;98271.81;5085379;28;20268;-86
2023/04/20 01:34:26;;;;;;;;;;;;;;;26.14;29.38;98272.00;5087532;28;19928;-86
2023/04/20 01:36:52;;;;;;;;;;;;;;;26.14;28.15;98269.97;5088329;28;19999;-86
2023/04/20 01:39:18;;;;;;;;;;;;;;;26.16;28.15;98269.53;5087472;28;20074;-86
2023/04/20 01:41:44;;;;;;;;;;;;;;;25.70;28.73;98265.88;5084280;28;19921;-86
2023/04/20 01:44:10;;;;;;;;;;;;;;;25.56;29.62;98271.06;5085970;28;20300;-86
2023/04/20 01:46:38;;;;;;;;;;;;;;;25.91;29.42;98267.34;5082404;28;19920;-86
2023/04/20 01:49:04;;;;;;;;;;;;;;;26.01;28.23;98269.09;5083994;28;19927;-86
2023/04/20 01:51:31;;;;;;;;;;;;;;;25.87;28.05;98272.28;5086411;28;20294;-86
2023/04/20 01:53:58;;;;;;;;;;;;;;;25.57;28.70;98264.22;5087981;28;20384;-86
2023/04/20 01:56:24;;;;;;;;;;;;;;;25.65;29.04;98268.44;5091591;28;19920;-86
2023/04/20 01:58:50;;;;;;;;;;;;;;;25.80;29.05;98264.03;5085242;28;20044;-86
2023/04/20 02:01:16;;;;;;;;;;;;;;;25.96;28.75;98255.56;5090312;28;19969;-86
2023/04/20 02:03:42;;;;;;;;;;;;;;;26.03;28.79;98261.78;5092489;28;19962;-86
2023/04/20 02:06:08;;;;;;;;;;;;;;;26.18;29.35;98262.22;5091265;28;20385;-86
2023/04/20 02:08:34;;;;;;;;;;;;;;;26.40;28.59;98259.59;5086686;28;19943;-86
2023/04/20 02:11:00;;;;;;;;;;;;;;;26.48;28.91;98255.34;5092461;28;20007;-86
2023/04/20 02:13:26;;;;;;;;;;;;;;;26.61;28.64;98253.34;5089416;28;19920;-86
2023/04/20 02:15:53;;;;;;;;;;;;;;;26.68;28.17;98250.31;5086527;28;19932;-86
2023/04/20 02:18:20;;;;;;;;;;;;;;;26.67;27.91;98249.53;5089492;28;20609;-86
2023/04/20 02:20:46;;;;;;;;;;;;;;;26.61;28.01;98253.34;5095343;28;19931;-86
2023/04/20 02:23:12;;;;;;;;;;;;;;;26.44;27.99;98252.63;5090383;28;19920;-86
2023/04/20 02:25:38;;;;;;;;;;;;;;;26.42;27.90;98251.50;5086552;28;19924;-86
2023/04/20 02:28:04;;;;;;;;;;;;;;;26.47;28.47;98253.75;5095700;28;19973;-86
2023/04/20 02:30:30;;;;;;;;;;;;;;;26.47;28.07;98254.56;5095498;28;20337;-86
2023/04/20 02:32:56;;;;;;;;;;;;;;;26.27;28.19;98253.94;5096408;28;19923;-86
2023/04/20 02:35:22;;;;;;;;;;;;;;;25.89;28.25;98255.75;5092649;28;20272;-86
2023/04/20 02:37:48;;;;;;;;;;;;;;;25.80;28.54;98250.75;5092789;28;20331;-86
2023/04/20 02:40:14;;;;;;;;;;;;;;;25.84;28.32;98256.28;5092233;28;19917;-86
2023/04/20 02:42:40;;;;;;;;;;;;;;;25.60;28.26;98252.88;5076311;28;19951;-86
2023/04/20 02:45:07;;;;;;;;;;;;;;;25.47;28.94;98259.66;5090980;28;19924;-85
2023/04/20 02:47:33;;;;;;;;;;;;;;;25.60;28.60;98258.50;5094811;28;19920;-86
2023/04/20 02:49:59;;;;;;;;;;;;;;;25.71;28.21;98258.22;5092790;28;19920;-86
2023/04/20 02:52:25;;;;;;;;;;;;;;;25.64;28.84;98258.41;5094662;28;19916;-85
2023/04/20 02:54:51;;;;;;;;;;;;;;;25.59;28.54;98256.13;5092825;28;20380;-85
2023/04/20 02:57:17;;;;;;;;;;;;;;;25.54;29.00;98259.47;5093702;28;20272;-86
2023/04/20 02:59:43;;;;;;;;;;;;;;;25.53;28.69;98255.09;5095505;28;20016;-86
2023/04/20 03:02:09;;;;;;;;;;;;;;;25.53;28.64;98252.28;5086502;28;20399;-86
2023/04/20 03:04:35;;;;;;;;;;;;;;;25.54;28.76;98256.66;5084991;28;20378;-86
2023/04/20 03:07:02;;;;;;;;;;;;;;;25.78;28.62;98256.03;5093791;28;20066;-86
2023/04/20 03:09:28;;;;;;;;;;;;;;;25.77;29.07;98259.28;5090477;28;19920;-86
2023/04/20 03:11:54;;;;;;;;;;;;;;;25.97;28.56;98260.75;5091075;28;20391;-86
2023/04/20 03:14:21;;;;;;;;;;;;;;;26.20;28.51;98259.75;5093024;28;20272;-86
2023/04/20 03:16:47;;;;;;;;;;;;;;;26.33;28.64;98259.78;5091725;28;19920;-86
2023/04/20 03:19:12;;;;;;;;;;;;;;;26.39;28.47;98267.28;5091955;28;20436;-86
2023/04/20 03:21:39;;;;;;;;;;;;;;;26.47;28.54;98270.66;5089798;28;19962;-86
2023/04/20 03:24:06;;;;;;;;;;;;;;;26.60;28.45;98266.66;5093545;28;19920;-86
2023/04/20 03:26:32;;;;;;;;;;;;;;;26.68;28.45;98270.84;5089721;28;20023;-86
2023/04/20 03:28:58;;;;;;;;;;;;;;;26.77;27.91;98269.44;5094418;28;20010;-86
2023/04/20 03:31:24;;;;;;;;;;;;;;;26.80;28.05;98271.31;5092413;28;19920;-86
2023/04/20 03:33:50;;;;;;;;;;;;;;;26.84;28.17;98272.78;5092674;28;20295;-86
2023/04/20 03:36:16;;;;;;;;;;;;;;;26.91;28.34;98281.03;5092685;28;19927;-86
2023/04/20 03:38:42;;;;;;;;;;;;;;;26.94;28.28;98274.50;5092161;28;19927;-86
2023/04/20 03:41:08;;;;;;;;;;;;;;;26.86;27.21;98269.56;5094318;28;19920;-86
2023/04/20 03:43:34;;;;;;;;;;;;;;;26.52;27.79;98272.91;5094901;28;20011;-86
2023/04/20 03:46:00;;;;;;;;;;;;;;;26.15;28.15;98273.56;5095172;28;19921;-86
2023/04/20 03:48:28;;;;;;;;;;;;;;;26.14;28.19;98272.00;5091017;28;19920;-86
2023/04/20 03:50:54;;;;;;;;;;;;;;;26.38;28.71;98276.94;5092921;28;19920;-86
2023/04/20 03:53:20;;;;;;;;;;;;;;;26.37;27.50;98277.41;5095009;28;20443;-86
2023/04/20 03:55:46;;;;;;;;;;;;;;;26.01;28.21;98271.91;5092869;28;20280;-86
2023/04/20 03:58:12;;;;;;;;;;;;;;;25.63;29.12;98268.06;5089081;28;19916;-86
2023/04/20 04:00:38;;;;;;;;;;;;;;;25.54;28.91;98274.31;5093723;28;19927;-85
2023/04/20 04:03:04;;;;;;;;;;;;;;;25.64;29.32;98278.09;5094441;28;19920;-86
2023/04/20 04:05:30;;;;;;;;;;;;;;;25.87;29.11;98278.69;5090227;28;19946;-86
2023/04/20 04:07:56;;;;;;;;;;;;;;;25.99;28.73;98288.44;5083750;28;19973;-86
2023/04/20 04:10:23;;;;;;;;;;;;;;;26.14;28.64;98286.09;5092907;28;19920;-87
2023/04/20 04:12:49;;;;;;;;;;;;;;;26.19;28.99;98294.75;5094333;28;19959;-87
2023/04/20 04:15:17;;;;;;;;;;;;;;;26.17;28.34;98294.41;5094843;28;19924;-86
2023/04/20 04:17:44;;;;;;;;;;;;;;;26.23;28.42;98295.47;5088518;28;20287;-87
2023/04/20 04:20:10;;;;;;;;;;;;;;;26.40;28.39;98296.19;5090221;28;19921;-87
2023/04/20 04:22:36;;;;;;;;;;;;;;;26.24;28.06;98294.22;5088445;28;19920;-85
2023/04/20 04:25:03;;;;;;;;;;;;;;;26.04;28.58;98299.16;5089481;28;20003;-86
2023/04/20 04:27:33;;;;;;;;;;;;;;;26.10;28.70;98300.22;5086472;28;20395;-87
2023/04/20 04:30:00;;;;;;;;;;;;;;;26.27;28.93;98298.19;5088915;28;19924;-86
2023/04/20 04:32:26;;;;;;;;;;;;;;;26.53;29.29;98308.31;5086267;28;19944;-87
2023/04/20 04:34:52;;;;;;;;;;;;;;;26.71;28.36;98302.94;5086385;28;19920;-87
2023/04/20 04:37:18;;;;;;;;;;;;;;;26.86;28.88;98309.78;5077321;28;19935;-88
2023/04/20 04:39:45;;;;;;;;;;;;;;;26.95;28.74;98304.28;5086411;28;20451;-88
2023/04/20 04:42:11;;;;;;;;;;;;;;;26.98;28.92;98313.88;5085841;28;19978;-87
2023/04/20 04:44:38;;;;;;;;;;;;;;;27.02;28.46;98309.72;5086193;28;19931;-86
2023/04/20 04:47:04;;;;;;;;;;;;;;;27.07;28.54;98311.19;5087858;28;19920;-87
2023/04/20 04:49:34;;;;;;;;;;;;;;;27.08;28.62;98313.53;5086142;28;20276;-88
2023/04/20 04:52:01;;;;;;;;;;;;;;;27.17;28.92;98312.84;5086653;28;19931;-88
2023/04/20 04:54:27;;;;;;;;;;;;;;;27.20;28.64;98324.03;5086401;28;20397;-88
2023/04/20 04:56:53;;;;;;;;;;;;;;;27.27;28.14;98323.03;5082485;28;20394;-89
2023/04/20 04:59:19;;;;;;;;;;;;;;;27.22;28.18;98323.59;5085114;28;19952;-90
2023/04/20 05:01:45;;;;;;;;;;;;;;;27.26;28.52;98325.06;5084286;28;19920;-90
2023/04/20 05:04:11;;;;;;;;;;;;;;;27.30;28.28;98316.50;5082628;28;20401;-88
2023/04/20 05:06:37;;;;;;;;;;;;;;;27.30;28.24;98320.13;5090802;28;20011;-87
2023/04/20 05:09:04;;;;;;;;;;;;;;;26.69;28.44;98322.34;5089747;28;19977;-87
2023/04/20 05:11:30;;;;;;;;;;;;;;;26.62;29.04;98319.72;5089907;28;20057;-87
2023/04/20 05:13:56;;;;;;;;;;;;;;;26.79;29.29;98321.28;5091755;28;19931;-87
2023/04/20 05:16:22;;;;;;;;;;;;;;;27.02;28.75;98326.63;5090160;28;19943;-87
2023/04/20 05:18:48;;;;;;;;;;;;;;;27.17;28.57;98329.78;5091193;28;20020;-87
2023/04/20 05:21:15;;;;;;;;;;;;;;;27.18;28.48;98331.38;5092140;28;20404;-88
2023/04/20 05:23:41;;;;;;;;;;;;;;;27.28;28.66;98338.72;5092364;28;20299;-87
2023/04/20 05:26:07;;;;;;;;;;;;;;;27.02;28.07;98337.09;5090638;28;20022;-88
2023/04/20 05:28:33;;;;;;;;;;;;;;;26.53;28.48;98342.91;5094625;28;20039;-87
2023/04/20 05:31:00;;;;;;;;;;;;;;;26.15;29.30;98341.13;5088365;28;19931;-88
2023/04/20 05:33:26;;;;;;;;;;;;;;;25.95;30.36;98341.97;5096485;28;19920;-87
2023/04/20 05:35:56;;;;;;;;;;;;;;;26.20;28.83;98341.38;5094478;28;19927;-87
2023/04/20 05:38:22;;;;;;;;;;;;;;;26.39;30.05;98343.28;5096143;28;20014;-87
2023/04/20 05:40:48;;;;;;;;;;;;;;;26.80;30.18;98350.22;5096228;28;19927;-88
2023/04/20 05:43:16;;;;;;;;;;;;;;;27.01;28.83;98349.59;5095884;28;19924;-87
2023/04/20 05:45:42;;;;;;;;;;;;;;;27.20;28.83;98357.06;5091424;28;20019;-88
2023/04/20 05:48:08;;;;;;;;;;;;;;;27.29;28.87;98349.53;5092476;28;20006;-88
2023/04/20 09:34:20;;;;;;;;;;;;;;;26.28;36.76;98390.63;5146747;27;19923;-84
2023/04/20 09:36:50;;;;;;;;;;;;;;;27.02;31.93;98390.66;5132172;27;19920;-84
2023/04/20 09:39:17;;;;;;;;;;;;;;;25.49;36.19;98394.94;5131580;27;19925;-84
2023/04/20 09:41:44;;;;;;;;;;;;;;;26.00;32.91;98391.31;5130052;27;19923;-85
2023/04/20 09:44:10;;;;;;;;;;;;;;;26.83;31.85;98389.56;5131868;27;19922;-84
2023/04/20 09:46:38;;;;;;;;;;;;;;;27.19;33.30;98384.47;5130304;27;20014;-84
2023/04/20 09:49:05;;;;;;;;;;;;;;;27.88;33.12;98396.06;5127843;27;20371;-84
2023/04/20 09:51:32;;;;;;;;;;;;;;;27.18;35.43;98391.38;5129112;27;19926;-85
2023/04/20 09:53:59;;;;;;;;;;;;;;;27.93;33.68;98379.38;5129678;27;19920;-84
2023/04/20 09:56:26;;;;;;;;;;;;;;;28.08;34.07;98390.22;5130009;27;20303;-84
2023/04/20 09:58:53;;;;;;;;;;;;;;;26.17;33.33;98384.47;5131221;27;19920;-84
2023/04/20 10:01:19;;;;;;;;;;;;;;;24.97;41.21;98389.25;5131615;27;19939;-84
2023/04/20 10:03:45;;;;;;;;;;;;;;;26.34;34.87;98386.06;5130618;27;19924;-83
2023/04/20 10:06:25;;;;;;;;;;;;;;;25.36;42.42;98384.38;5129853;28;19927;-86
2023/04/20 10:08:51;;;;;;;;;;;;;;;25.10;43.62;98382.53;5124453;28;19920;-84
2023/04/20 10:11:24;;;;;;;;;;;;;;;23.95;45.26;98387.06;5125306;28;19972;-84
2023/04/20 10:13:50;;;;;;;;;;;;;;;25.91;33.39;98377.06;5128730;27;19943;-84
2023/04/20 10:16:17;;;;;;;;;;;;;;;26.39;39.14;98377.06;5129396;28;19938;-84
2023/04/20 10:18:54;;;;;;;;;;;;;;;24.78;44.61;98381.59;5122193;27;19920;-84
2023/04/20 10:21:20;;;;;;;;;;;;;;;25.47;39.80;98388.97;5131001;27;19915;-85
2023/04/20 10:23:47;;;;;;;;;;;;;;;26.73;34.07;98385.78;5130538;28;20330;-85
2023/04/20 10:26:13;;;;;;;;;;;;;;;26.74;34.97;98381.75;5130241;27;19932;-84
2023/04/20 10:28:40;;;;;;;;;;;;;;;26.70;35.30;98381.03;5127081;28;19982;-84
2023/04/20 10:31:07;;;;;;;;;;;;;;;26.13;34.07;98377.38;5130708;27;19915;-84
2023/04/20 10:33:33;;;;;;;;;;;;;;;24.95;42.60;98375.59;5125981;27;19953;-83
2023/04/20 10:35:59;;;;;;;;;;;;;;;26.20;40.14;98374.38;5106226;28;19926;-84
2023/04/20 10:38:32;;;;;;;;;;;;;;;27.32;31.64;98371.22;5115125;28;19919;-84
2023/04/20 10:41:08;;;;;;;;;;;;;;;25.63;36.93;98363.69;5116898;28;20376;-84
2023/04/20 10:43:34;;;;;;;;;;;;;;;25.27;38.52;98375.75;5116492;28;19919;-84
2023/04/20 10:46:00;;;;;;;;;;;;;;;25.06;36.63;98366.97;5114712;28;19920;-84
2023/04/20 10:48:26;;;;;;;;;;;;;;;24.54;39.86;98364.78;5109889;28;19920;-85
2023/04/20 10:50:53;;;;;;;;;;;;;;;23.38;46.70;98359.09;5108154;28;19920;-85
2023/04/20 10:53:20;;;;;;;;;;;;;;;23.34;47.67;98368.75;5103924;28;19926;-84
2023/04/20 10:55:46;;;;;;;;;;;;;;;24.20;40.61;98360.63;5102479;28;20389;-84
2023/04/20 10:58:22;;;;;;;;;;;;;;;25.08;41.19;98362.50;5109540;28;19971;-84
2023/04/20 11:01:02;;;;;;;;;;;;;;;25.05;40.52;98357.75;5105600;28;19920;-85
2023/04/20 11:03:29;;;;;;;;;;;;;;;23.84;41.56;98368.81;5102138;28;19976;-84
2023/04/20 11:05:59;;;;;;;;;;;;;;;24.72;34.93;98353.97;5113854;28;19932;-84
2023/04/20 11:08:38;;;;;;;;;;;;;;;24.14;39.17;98365.13;5114980;28;19921;-84
2023/04/20 11:11:05;;;;;;;;;;;;;;;24.18;40.14;98368.69;5111313;28;19961;-84
2023/04/20 11:13:33;;;;;;;;;;;;;;;25.72;37.21;98358.28;5115827;28;20321;-84
2023/04/20 11:16:08;;;;;;;;;;;;;;;25.74;35.25;98355.81;5106765;28;19916;-84
2023/04/20 11:18:34;;;;;;;;;;;;;;;25.03;39.65;98357.38;5105059;28;19916;-83
2023/04/20 11:21:00;;;;;;;;;;;;;;;24.71;38.57;98354.44;5112334;28;20430;-83
2023/04/20 11:23:35;;;;;;;;;;;;;;;25.54;34.83;98349.44;5109233;28;19967;-84
2023/04/20 11:26:01;;;;;;;;;;;;;;;27.83;31.53;98348.66;5100444;28;20281;-83
2023/04/20 11:28:33;;;;;;;;;;;;;;;28.90;31.20;98347.34;5100493;28;20008;-83
2023/04/20 11:30:59;;;;;;;;;;;;;;;29.30;29.49;98344.63;5107211;28;20084;-84
2023/04/20 11:33:29;;;;;;;;;;;;;;;28.98;32.16;98337.38;5115701;28;19959;-84
2023/04/20 11:35:55;;;;;;;;;;;;;;;27.62;36.62;98349.34;5115778;28;19916;-84
2023/04/20 11:38:25;;;;;;;;;;;;;;;28.64;31.19;98345.88;5115481;28;19937;-84
2023/04/20 11:40:51;;;;;;;;;;;;;;;28.84;31.56;98346.38;5112286;28;19923;-84
2023/04/20 11:43:17;;;;;;;;;;;;;;;28.86;30.24;98343.88;5110745;28;19965;-84
2023/04/20 11:45:43;;;;;;;;;;;;;;;28.12;31.73;98345.72;5105289;28;19928;-84
2023/04/20 11:48:09;;;;;;;;;;;;;;;27.74;36.27;98357.03;5115666;28;19938;-84
2023/04/20 11:50:36;;;;;;;;;;;;;;;25.47;41.77;98353.22;5112866;28;19945;-84
2023/04/20 11:53:02;;;;;;;;;;;;;;;26.15;32.59;98343.94;5104350;28;19960;-83
2023/04/20 11:55:28;;;;;;;;;;;;;;;25.62;40.82;98345.25;5115133;28;19916;-84
2023/04/20 11:57:54;;;;;;;;;;;;;;;27.49;30.35;98345.75;5115323;28;19923;-83
2023/04/20 12:00:20;;;;;;;;;;;;;;;29.12;32.25;98339.66;5113800;28;19912;-83
2023/04/20 12:02:46;;;;;;;;;;;;;;;30.46;30.77;98333.38;5101663;28;20295;-83
2023/04/20 12:05:12;;;;;;;;;;;;;;;29.42;34.55;98341.72;5103465;28;20049;-84
2023/04/20 12:07:38;;;;;;;;;;;;;;;28.85;38.97;98336.63;5100746;28;19920;-84
2023/04/20 12:10:06;;;;;;;;;;;;;;;26.55;42.74;98346.06;5104502;28;19919;-84
2023/04/20 12:12:32;;;;;;;;;;;;;;;25.14;45.29;98343.09;5100387;28;20331;-84
2023/04/20 12:14:58;;;;;;;;;;;;;;;24.99;43.60;98336.22;5111577;27;19969;-84
2023/04/20 12:17:25;;;;;;;;;;;;;;;25.38;41.80;98330.50;5105988;28;19923;-84
2023/04/20 12:19:51;;;;;;;;;;;;;;;26.50;32.54;98338.16;5094253;28;19923;-84
2023/04/20 12:22:17;;;;;;;;;;;;;;;26.03;39.88;98328.53;5094437;28;19941;-83
2023/04/20 12:24:43;;;;;;;;;;;;;;;26.06;36.70;98331.25;5101306;28;19930;-83
2023/04/20 12:27:09;;;;;;;;;;;;;;;28.36;32.55;98327.09;5103162;28;20015;-84
2023/04/20 12:29:35;;;;;;;;;;;;;;;30.01;31.72;98320.69;5109844;28;19919;-84
2023/04/20 12:32:01;;;;;;;;;;;;;;;30.17;29.55;98316.03;5112126;28;19930;-85
2023/04/20 12:34:27;;;;;;;;;;;;;;;28.77;32.77;98328.88;5112696;28;20384;-84
2023/04/20 12:36:53;;;;;;;;;;;;;;;28.77;32.54;98321.19;5114744;28;19916;-84
2023/04/20 12:39:20;;;;;;;;;;;;;;;28.94;36.36;98330.28;5114196;28;19984;-83
2023/04/20 12:41:46;;;;;;;;;;;;;;;29.12;29.19;98319.06;5114808;28;19967;-83
2023/04/20 12:44:12;;;;;;;;;;;;;;;27.53;39.38;98324.66;5114506;28;19916;-83
2023/04/20 12:46:38;;;;;;;;;;;;;;;26.05;42.02;98326.06;5114629;28;19921;-84
2023/04/20 12:49:05;;;;;;;;;;;;;;;25.22;45.06;98322.06;5114013;28;19939;-84
2023/04/20 12:51:31;;;;;;;;;;;;;;;25.95;42.83;98316.66;5103688;28;19936;-84
2023/04/20 12:53:57;;;;;;;;;;;;;;;25.81;44.19;98319.06;5103505;28;19920;-84
2023/04/20 12:56:23;;;;;;;;;;;;;;;25.69;40.20;98323.38;5114246;28;19916;-84
2023/04/20 12:58:49;;;;;;;;;;;;;;;27.08;33.06;98321.19;5114078;27;20384;-83
2023/04/20 13:01:15;;;;;;;;;;;;;;;28.67;36.91;98313.91;5096926;28;20029;-83
2023/04/20 13:03:41;;;;;;;;;;;;;;;28.11;33.88;98315.88;5100735;28;20021;-83
2023/04/20 13:06:07;;;;;;;;;;;;;;;26.54;41.13;98315.50;5114502;28;19920;-83
2023/04/20 13:08:35;;;;;;;;;;;;;;;26.93;37.57;98320.06;5103719;28;20342;-83
2023/04/20 13:11:02;;;;;;;;;;;;;;;26.34;40.69;98301.59;5093995;28;20338;-84
2023/04/20 13:13:28;;;;;;;;;;;;;;;24.92;44.86;98311.09;5097049;28;19923;-84
2023/04/20 13:15:54;;;;;;;;;;;;;;;25.61;34.56;98307.09;5098456;28;20291;-83
2023/04/20 13:18:22;;;;;;;;;;;;;;;27.88;32.07;98309.38;5111433;28;20020;-83
2023/04/20 13:20:49;;;;;;;;;;;;;;;25.68;42.17;98306.91;5105896;28;19919;-84
2023/04/20 13:23:15;;;;;;;;;;;;;;;24.94;41.72;98303.00;5112921;28;20380;-83
2023/04/20 13:25:41;;;;;;;;;;;;;;;26.90;32.31;98312.50;5104688;28;20334;-83
2023/04/20 13:28:07;;;;;;;;;;;;;;;28.04;31.09;98303.63;5109019;28;19916;-83
2023/04/20 13:30:33;;;;;;;;;;;;;;;26.76;38.30;98308.06;5111499;28;19920;-83
2023/04/20 13:32:59;;;;;;;;;;;;;;;25.12;39.88;98307.00;5113371;28;20422;-83
2023/04/20 13:35:25;;;;;;;;;;;;;;;25.92;33.21;98306.31;5114012;28;19916;-83
2023/04/20 13:37:51;;;;;;;;;;;;;;;25.93;40.07;98304.25;5107109;28;20019;-83
2023/04/20 13:40:17;;;;;;;;;;;;;;;25.98;37.87;98307.34;5111582;28;19967;-84
2023/04/20 13:42:43;;;;;;;;;;;;;;;25.08;41.20;98299.88;5107722;28;19967;-85
2023/04/20 13:45:09;;;;;;;;;;;;;;;24.87;39.42;98305.97;5111079;28;19959;-84
2023/04/20 13:47:36;;;;;;;;;;;;;;;25.74;35.69;98305.19;5112601;28;20380;-84
2023/04/20 13:50:03;;;;;;;;;;;;;;;25.97;35.10;98307.78;5112919;28;19920;-84
2023/04/20 13:52:29;;;;;;;;;;;;;;;25.36;34.17;98300.03;5113109;28;20007;-84
2023/04/20 13:54:55;;;;;;;;;;;;;;;25.06;38.50;98302.34;5112202;28;19935;-84
2023/04/20 13:57:21;;;;;;;;;;;;;;;26.56;32.54;98299.75;5101441;28;19949;-83
2023/04/20 13:59:47;;;;;;;;;;;;;;;26.54;39.20;98296.59;5097306;28;19920;-85
2023/04/20 14:02:13;;;;;;;;;;;;;;;26.88;31.73;98298.06;5101114;28;20433;-84
2023/04/20 14:04:39;;;;;;;;;;;;;;;27.87;32.00;98275.94;5106859;28;19930;-84
2023/04/20 14:07:05;;;;;;;;;;;;;;;27.09;38.36;98294.59;5111478;28;20384;-83
2023/04/20 14:09:31;;;;;;;;;;;;;;;25.08;43.03;98292.25;5112236;28;19919;-84
2023/04/20 14:11:58;;;;;;;;;;;;;;;26.08;31.72;98283.78;5113198;28;19920;-84
2023/04/20 14:14:24;;;;;;;;;;;;;;;26.35;33.40;98279.88;5117560;28;19940;-83
2023/04/20 14:16:50;;;;;;;;;;;;;;;26.34;36.28;98287.50;5114495;28;19923;-83
2023/04/20 14:19:16;;;;;;;;;;;;;;;24.69;44.12;98293.06;5117305;28;19922;-83
2023/04/20 14:21:46;;;;;;;;;;;;;;;24.58;39.17;98280.47;5111112;28;19927;-84
2023/04/20 14:24:12;;;;;;;;;;;;;;;24.62;39.95;98286.81;5112534;28;19920;-83
2023/04/20 14:26:39;;;;;;;;;;;;;;;25.18;40.55;98293.25;5110078;28;20052;-83
2023/04/20 14:29:05;;;;;;;;;;;;;;;25.34;39.16;98291.22;5109453;28;19920;-83
2023/04/20 14:31:31;;;;;;;;;;;;;;;26.22;34.99;98293.88;5102195;28;19919;-83
2023/04/20 14:33:57;;;;;;;;;;;;;;;25.91;40.01;98289.84;5116266;28;19957;-86
2023/04/20 14:36:23;;;;;;;;;;;;;;;25.56;37.22;98291.53;5116091;28;19919;-86
2023/04/20 14:38:49;;;;;;;;;;;;;;;25.33;41.58;98286.84;5116898;28;19911;-87
2023/04/20 14:41:15;;;;;;;;;;;;;;;24.82;40.69;98287.63;5115479;28;19916;-86
2023/04/20 14:43:41;;;;;;;;;;;;;;;25.70;38.67;98285.56;5113285;28;20372;-86
2023/04/20 14:46:08;;;;;;;;;;;;;;;25.69;40.18;98294.44;5115060;28;19920;-86
2023/04/20 14:48:36;;;;;;;;;;;;;;;25.90;32.49;98291.09;5112651;27;19919;-85
2023/04/20 14:51:03;;;;;;;;;;;;;;;25.95;38.64;98290.56;5111968;28;20364;-86
2023/04/20 14:53:29;;;;;;;;;;;;;;;26.37;37.65;98292.22;5112949;28;20392;-88
2023/04/20 14:55:55;;;;;;;;;;;;;;;24.95;41.88;98288.53;5109468;28;19920;-88
2023/04/20 14:58:21;;;;;;;;;;;;;;;24.87;42.04;98292.72;5114646;28;19923;-86
2023/04/20 15:00:47;;;;;;;;;;;;;;;24.67;40.81;98298.31;5115779;28;19927;-84
2023/04/20 15:03:15;;;;;;;;;;;;;;;26.38;36.27;98296.66;5110474;28;19931;-87
2023/04/20 15:05:41;;;;;;;;;;;;;;;24.82;39.54;98296.03;5114306;28;22234;-87
2023/04/20 15:08:08;;;;;;;;;;;;;;;26.09;30.83;98293.78;5113366;27;19923;-86
2023/04/20 15:10:34;;;;;;;;;;;;;;;27.03;29.61;98299.19;5113965;27;19927;-87
2023/04/20 15:13:00;;;;;;;;;;;;;;;27.64;31.07;98291.22;5109599;28;20423;-89
2023/04/20 15:15:26;;;;;;;;;;;;;;;27.63;28.59;98286.84;5108442;28;20401;-88
2023/04/20 15:17:52;;;;;;;;;;;;;;;26.92;34.07;98293.09;5109847;28;19927;-88
2023/04/20 15:20:18;;;;;;;;;;;;;;;25.08;38.38;98297.09;5110549;28;19957;-88
2023/04/20 15:22:44;;;;;;;;;;;;;;;24.59;37.41;98301.72;5110020;28;19920;-88
2023/04/20 15:25:10;;;;;;;;;;;;;;;25.05;39.85;98292.31;5110709;28;19942;-87
2023/04/20 15:27:37;;;;;;;;;;;;;;;25.32;37.86;98292.91;5106838;28;19916;-88
2023/04/20 15:30:03;;;;;;;;;;;;;;;25.79;37.90;98293.41;5106303;28;19920;-89
2023/04/20 15:32:32;;;;;;;;;;;;;;;25.51;40.11;98289.25;5113780;28;20018;-89
2023/04/20 15:34:58;;;;;;;;;;;;;;;25.74;36.88;98291.13;5109857;28;19928;-87
2023/04/20 15:37:24;;;;;;;;;;;;;;;25.58;33.30;98293.94;5102655;28;19943;-87
2023/04/20 15:39:51;;;;;;;;;;;;;;;25.43;32.78;98287.81;5111888;28;20257;-87
2023/04/20 15:42:17;;;;;;;;;;;;;;;25.45;34.94;98287.41;5107797;27;19928;-86
2023/04/20 15:44:43;;;;;;;;;;;;;;;25.48;36.96;98292.97;5104009;28;19928;-87
2023/04/20 15:47:09;;;;;;;;;;;;;;;24.54;37.38;98291.78;5113444;28;19978;-87
2023/04/20 15:49:39;;;;;;;;;;;;;;;24.12;37.98;98295.41;5110430;28;20376;-89
2023/04/20 15:52:08;;;;;;;;;;;;;;;26.12;31.06;98299.78;5109832;28;19942;-87
2023/04/20 15:54:35;;;;;;;;;;;;;;;26.00;35.08;98290.00;5104504;28;20019;-88
2023/04/20 15:57:02;;;;;;;;;;;;;;;27.04;29.96;98295.16;5105615;28;20291;-86
2023/04/20 15:59:28;;;;;;;;;;;;;;;27.47;28.86;98284.13;5110766;28;19926;-87
2023/04/20 16:01:54;;;;;;;;;;;;;;;26.34;30.28;98295.16;5102450;28;19971;-89
2023/04/20 16:04:21;;;;;;;;;;;;;;;27.47;30.26;98292.59;5105747;28;19920;-87
2023/04/20 16:06:47;;;;;;;;;;;;;;;27.48;28.17;98279.28;5100676;28;19915;-87
2023/04/20 16:09:13;;;;;;;;;;;;;;;28.05;27.13;98279.00;5104551;28;19935;-87
2023/04/20 16:11:39;;;;;;;;;;;;;;;28.74;26.84;98282.53;5111747;28;19920;-86
2023/04/20 16:14:05;;;;;;;;;;;;;;;26.48;31.39;98295.56;5108496;28;19981;-87
2023/04/20 16:16:32;;;;;;;;;;;;;;;25.88;30.98;98285.88;5100300;28;20323;-85
2023/04/20 16:18:58;;;;;;;;;;;;;;;26.53;28.54;98291.41;5103797;28;20006;-85
2023/04/20 16:21:24;;;;;;;;;;;;;;;27.54;27.14;98283.13;5109110;28;19919;-83
2023/04/20 16:23:52;;;;;;;;;;;;;;;28.44;26.99;98286.84;5104679;28;20443;-86
2023/04/20 16:26:18;;;;;;;;;;;;;;;27.88;26.44;98283.97;5104146;28;20362;-86
2023/04/20 16:28:44;;;;;;;;;;;;;;;28.59;26.21;98287.94;5105459;28;19923;-86